Main page
METAR-TAF:

METAR-TAF

Airports :

Naxos Island National Airport

Naxos, Greece

latitude: 37-04-47N, longitude: 025-22-01E, elevation: 3 m

Current weather observation

The report was made 10 hours and 56 minutes ago, at 15:50 UTC
Wind 12 kt from the South
Temperature 29°C
Humidity 58%
Pressure 1007 hPa
Visibility 10 km or more
no clouds below 1500 m and no cumulonimbus

METAR: LGNX 171550Z 18012KT CAVOK 29/20 Q1007

Time: 05:46 (02:46 UTC)


TAF: missing

Weather observations and forecasts of more than 4000 airports (METAR and TAF reports).

The available stations are represented by yellow and red dots on the map.

Hover mouse over dot to see the name of the station.

Then click to see weather observations and forecasts.

To change the map : click on the green buttons with a black cross to zoom in, on the green button with a dash to zoom out, or on the green arrows for adjacent maps.


METAR-TAF: